• Join FlightAware (Why Join?)
  • Login
  • US Flag 
02:50AM EDT


 

Airport Tracker/Info


-or-


 

Live Flight TrackerFlight Track Log ✈ N774LA ✈ 17-Apr-2013 ✈ SCEL / SCL - KMIA

Flight Track Log - Related Links

Times and Time Zones

All times are in EDT time to prevent confusion due to time zone crossing. See the N774LA flight status page for this flight to view local times or setup timezone preferences in your user account.

Time Position Orientation Groundspeed Altitude Reporting Facility
EDT Latitude Longitude Course Direction KTS MPH feet Rate Location/Type
10:33AM -30.2954 -71.4111 350° North  Level Estimated
10:34AM -30.2100 -71.4278 350° North  Level Estimated
10:35AM -30.1247 -71.4444 350° North  Level Estimated
10:36AM -30.0393 -71.4610 350° North  Level Estimated
10:37AM -29.9539 -71.4776 350° North  Level Estimated
10:38AM -29.8685 -71.4941 350° North  Level Estimated
10:39AM -29.7831 -71.5106 350° North  Level Estimated
10:40AM -29.6978 -71.5271 350° North  Level Estimated
10:41AM -29.6124 -71.5435 350° North  Level Estimated
10:42AM -29.5270 -71.5600 350° North  Level Estimated
10:42AM 23.9600 -81.2270 350° North 464 534 32,000  Level FlightAware
10:42AM 24.0420 -81.2100 11° North 472 543 32,000 -360 Level FlightAware
10:43AM 24.1440 -81.1900 10° North 471 542 31,500 -1,320 Descending FlightAware
10:44AM 24.2270 -81.1730 11° North 454 522 30,200 -2,040 Descending FlightAware
10:44AM 24.3100 -81.1560 11° North 412 474 28,800 -1,860 Descending FlightAware
10:45AM 24.3900 -81.1410 10° North 405 466 27,600 -1,740 Descending FlightAware
10:46AM 24.4640 -81.1260 10° North 421 484 26,400 -1,920 Descending FlightAware
10:46AM 24.5550 -81.1080 10° North 394 453 24,900 -1,800 Descending FlightAware
10:47AM 24.6260 -81.0940 10° North 391 450 23,900 -1,740 Descending FlightAware
10:48AM 24.7010 -81.0790 10° North 405 466 22,600 -1,920 Descending FlightAware
10:49AM 24.7850 -81.0620 10° North 411 473 21,200 -1,920 Descending FlightAware
10:49AM 24.8640 -81.0460 10° North 425 489 19,900 -1,920 Descending FlightAware
10:50AM 24.9350 -81.0310 11° North 380 437 18,700 -1,860 Descending FlightAware
10:51AM 25.0140 -81.0150 10° North 379 436 17,300 -1,860 Descending FlightAware
10:51AM 25.0870 -81.0010 10° North 376 433 16,100 -1,800 Descending FlightAware
10:52AM 25.1640 -80.9850 11° North 379 436 14,800 -1,800 Descending FlightAware
10:53AM 25.2320 -80.9710 11° North 343 395 13,600 -1,680 Descending FlightAware
10:53AM 25.2920 -80.9590 10° North 342 394 12,600 -1,560 Descending FlightAware
10:54AM 25.3660 -80.9440 10° North 347 399 11,400 -1,440 Descending FlightAware
10:55AM 25.4250 -80.9210 19° North 334 384 10,600 -900 Descending FlightAware
10:56AM 25.4930 -80.9160 North 307 353 10,200 -540 Descending FlightAware
10:56AM 25.5280 -80.9110 North 292 336 10,000 -480 Descending FlightAware
10:56AM 25.5460 -80.9040 19° North 275 316 9,900 -240 Descending FlightAware
10:56AM 25.5610 -80.8900 40° Northeast 275 316 9,900 -240 Level FlightAware
10:57AM 25.5700 -80.8720 61° Northeast 277 319 9,800 -180 Descending FlightAware
10:57AM 25.5830 -80.8390 66° East 274 315 9,800 -180 Level FlightAware
10:57AM 25.5900 -80.8200 68° East 277 319 9,700 -840 Descending FlightAware
10:58AM 25.6040 -80.8050 44° Northeast 266 306 9,400 -1,020 Descending FlightAware
10:58AM 25.6210 -80.7980 20° North 266 306 9,200 -1,380 Descending FlightAware
10:58AM 25.6530 -80.7950 North 271 312 8,500 -1,560 Descending FlightAware
10:59AM 25.6920 -80.7910 North 275 316 7,800 -1,200 Descending FlightAware
10:59AM 25.7280 -80.7880 North 259 298 7,300 -780 Descending FlightAware
11:00AM 25.7580 -80.7860 North 239 275 7,100 -600 Descending FlightAware
11:00AM 25.7750 -80.7810 15° North 230 265 6,900 -1,020 Descending FlightAware
11:00AM 25.7850 -80.7690 47° Northeast 225 259 6,600 -1,200 Descending FlightAware
11:00AM 25.7860 -80.7580 84° East 220 253 6,400 -1,380 Descending FlightAware
11:01AM 25.7710 -80.7290 120° Southeast 219 252 5,700 -1,380 Descending FlightAware
11:01AM 25.7690 -80.7170 100° East 216 249 5,500 -1,080 Descending FlightAware
11:02AM 25.7700 -80.6860 88° East 209 241 5,000 -1,020 Descending FlightAware
11:02AM 25.7720 -80.6530 86° East 205 236 4,500 -960 Descending FlightAware
11:02AM 25.7720 -80.6330 90° East 202 232 4,200 -840 Descending FlightAware
11:03AM 25.7740 -80.6070 85° East 191 220 3,900 -840 Descending FlightAware
11:03AM 25.7750 -80.5850 87° East 177 204 3,500 -1,140 Descending FlightAware
11:04AM 25.7760 -80.5580 88° East 170 196 2,900 -960 Descending FlightAware
11:04AM 25.7760 -80.5440 90° East 171 197 2,800 -180 Descending FlightAware
11:04AM 25.7770 -80.5230 87° East 172 198 2,800  Level FlightAware
11:05AM 25.7780 -80.4980 87° East 171 197 2,800 -120 Level FlightAware
11:05AM 25.7790 -80.4750 87° East 174 200 2,700 -660 Descending FlightAware
11:06AM 25.7800 -80.4480 88° East 169 194 2,200 -960 Descending FlightAware
11:06AM 25.7810 -80.4320 86° East 166 191 1,900 -900 Descending FlightAware
11:07AM 25.7820 -80.4020 88° East 165 190 1,400 -780 Descending FlightAware
11:07AM 25.7830 -80.3890 85° East 158 182 1,200 -840 Descending FlightAware
11:08AM 25.7840 -80.3550 88° East 149 171 600 -600 Descending FlightAware
11:08AM 25.7850 -80.3220 88° East 147 169 400 -300 Descending FlightAware